Time;durP1;ratioP1;P1;durP2;ratioP2;P2;SDS_P1;SDS_P2;PMS_P1;PMS_P2;Temp;Humidity;BMP_temperature;BMP_pressure;BME280_temperature;BME280_humidity;BME280_pressure;Samples;Min_cycle;Max_cycle;Signal;HPM_P1;HPM_P2
2021/07/04 00:00:23;;;;;;;18.02;9.03;;;;;;;19.16;77.06;99947.72;2793907;84;21046;-65
2021/07/04 00:04:27;;;;;;;12.80;9.05;;;;;;;19.08;77.14;99939.27;2783965;85;21063;-65
2021/07/04 00:08:32;;;;;;;14.85;8.75;;;;;;;19.02;77.38;99939.51;2790810;85;21019;-66
2021/07/04 00:12:37;;;;;;;10.17;8.07;;;;;;;18.96;77.30;99935.67;2790174;85;21012;-64
2021/07/04 00:16:45;;;;;;;15.20;9.35;;;;;;;18.81;77.22;99931.67;2791442;85;20996;-65
2021/07/04 00:20:50;;;;;;;10.40;9.30;;;;;;;18.80;77.67;99931.84;2792282;84;21087;-64
2021/07/04 00:24:53;;;;;;;13.35;10.43;;;;;;;18.64;77.59;99928.86;2791205;85;21067;-65
2021/07/04 00:28:56;;;;;;;14.95;9.90;;;;;;;18.58;77.86;99937.70;2792425;85;21492;-65
2021/07/04 00:32:59;;;;;;;18.00;10.00;;;;;;;18.53;77.44;99932.87;2790377;85;21054;-65
2021/07/04 00:37:04;;;;;;;15.75;8.83;;;;;;;18.44;77.56;99933.47;2772045;85;21048;-65
2021/07/04 00:41:07;;;;;;;13.28;10.23;;;;;;;18.41;77.35;99934.67;2774817;85;21004;-66
2021/07/04 00:45:16;;;;;;;12.13;8.90;;;;;;;18.36;78.31;99930.36;2776399;85;21007;-65
2021/07/04 00:49:20;;;;;;;20.82;12.13;;;;;;;18.08;78.89;99931.02;2791956;85;20991;-64
2021/07/04 00:53:23;;;;;;;17.17;12.25;;;;;;;17.94;79.80;99931.78;2791748;85;21604;-65
2021/07/04 00:57:27;;;;;;;21.33;13.65;;;;;;;17.92;80.33;99932.48;2791897;85;21099;-66
2021/07/04 01:01:30;;;;;;;26.02;13.58;;;;;;;17.97;80.19;99930.89;2762291;85;21008;-64
2021/07/04 01:05:37;;;;;;;20.32;15.00;;;;;;;17.98;79.71;99930.39;2710468;87;21075;-66
2021/07/04 01:09:39;;;;;;;24.85;15.95;;;;;;;17.96;79.50;99923.02;2749404;85;21585;-65
2021/07/04 01:13:42;;;;;;;20.88;14.23;;;;;;;17.82;79.57;99918.77;2757362;85;21402;-64
2021/07/04 01:17:49;;;;;;;32.60;14.30;;;;;;;17.72;80.57;99917.34;2757624;86;21541;-65
2021/07/04 01:21:56;;;;;;;31.77;13.78;;;;;;;17.72;81.20;99920.89;2757607;86;21067;-64
2021/07/04 01:26:01;;;;;;;19.42;12.63;;;;;;;17.72;80.44;99920.89;2700058;88;21075;-65
2021/07/04 01:30:10;;;;;;;15.67;11.77;;;;;;;17.70;80.55;99921.06;2700009;88;21608;-65
2021/07/04 01:34:13;;;;;;;19.65;9.28;;;;;;;17.61;79.80;99923.50;2700070;87;21022;-65
2021/07/04 01:38:18;;;;;;;15.95;9.15;;;;;;;17.47;80.14;99921.07;2699834;87;21000;-65
2021/07/04 01:42:20;;;;;;;20.70;10.90;;;;;;;17.33;80.00;99925.91;2749220;85;21067;-66
2021/07/04 01:46:24;;;;;;;18.90;10.23;;;;;;;17.38;80.73;99922.16;2757239;86;21079;-65
2021/07/04 01:50:30;;;;;;;16.17;9.38;;;;;;;17.32;80.61;99919.68;2757478;86;21007;-64
2021/07/04 01:54:34;;;;;;;16.07;9.48;;;;;;;17.22;80.97;99923.13;2700024;87;21055;-66
2021/07/04 01:58:39;;;;;;;18.12;10.82;;;;;;;17.20;81.22;99920.60;2701820;87;21031;-65
2021/07/04 02:02:45;;;;;;;15.68;9.35;;;;;;;17.20;81.90;99919.26;2756087;85;21023;-66
2021/07/04 02:06:48;;;;;;;18.87;10.32;;;;;;;17.26;81.51;99915.03;2756132;85;21055;-66
2021/07/04 02:10:51;;;;;;;16.32;9.75;;;;;;;17.36;81.28;99914.79;2756158;86;21020;-64
2021/07/04 02:14:54;;;;;;;14.03;9.20;;;;;;;17.38;80.53;99914.09;2756318;86;21048;-66
2021/07/04 02:18:57;;;;;;;15.10;8.98;;;;;;;17.37;80.42;99920.49;2721571;86;21058;-64
2021/07/04 02:23:06;;;;;;;18.92;7.42;;;;;;;17.41;80.48;99921.80;2721325;87;21070;-66
2021/07/04 02:27:11;;;;;;;12.90;9.43;;;;;;;17.21;80.23;99921.45;2755782;86;21033;-66
2021/07/04 02:31:13;;;;;;;13.53;9.30;;;;;;;17.02;81.39;99920.05;2721411;87;21035;-66
2021/07/04 02:35:17;;;;;;;12.13;8.93;;;;;;;16.99;81.70;99918.05;2721521;87;21523;-65
2021/07/04 02:39:21;;;;;;;17.60;9.88;;;;;;;17.06;81.61;99922.21;2721557;87;21046;-65
2021/07/04 02:43:26;;;;;;;17.60;9.85;;;;;;;17.11;81.20;99924.37;2756168;85;21107;-64
2021/07/04 02:47:30;;;;;;;18.10;9.20;;;;;;;17.10;81.06;99922.70;2756304;85;21106;-66
2021/07/04 02:51:33;;;;;;;13.95;8.90;;;;;;;17.05;80.93;99923.72;2756292;85;21079;-65
2021/07/04 02:55:37;;;;;;;15.30;9.48;;;;;;;16.98;80.67;99922.20;2721499;87;21058;-65
2021/07/04 02:59:40;;;;;;;15.30;9.00;;;;;;;16.87;80.66;99924.78;2751325;85;21044;-64
2021/07/04 03:03:43;;;;;;;15.10;7.97;;;;;;;16.82;81.06;99925.83;2706981;88;21059;-65
2021/07/04 03:07:47;;;;;;;14.35;8.35;;;;;;;16.82;80.79;99920.45;2706835;88;21007;-65
2021/07/04 03:11:52;;;;;;;15.40;8.13;;;;;;;16.78;80.30;99925.86;2741283;85;21518;-66
2021/07/04 03:15:57;;;;;;;17.02;9.58;;;;;;;16.64;80.99;99926.91;2741115;86;21044;-65
2021/07/04 03:20:00;;;;;;;15.58;8.38;;;;;;;16.66;81.48;99928.91;2706559;88;21074;-66
2021/07/04 03:24:03;;;;;;;23.02;8.38;;;;;;;16.63;81.51;99937.33;2740951;85;21103;-66
2021/07/04 03:28:08;;;;;;;29.75;11.65;;;;;;;16.75;82.15;99940.98;2740679;86;21032;-64
2021/07/04 03:32:11;;;;;;;28.47;11.60;;;;;;;16.83;82.30;99939.09;2741148;86;21021;-65
2021/07/04 03:36:13;;;;;;;22.02;10.95;;;;;;;16.77;82.16;99945.67;2741278;85;21000;-66
2021/07/04 03:40:19;;;;;;;27.20;10.68;;;;;;;16.54;82.78;99939.73;2741061;86;21000;-65
2021/07/04 03:44:21;;;;;;;23.07;11.37;;;;;;;16.40;83.97;99946.14;2741317;85;21047;-64
2021/07/04 03:48:24;;;;;;;22.82;12.85;;;;;;;16.39;84.84;99948.98;2740868;86;21068;-64
2021/07/04 03:52:27;;;;;;;22.32;11.22;;;;;;;16.47;85.29;99941.41;2740648;85;21131;-64
2021/07/04 03:56:30;;;;;;;23.25;11.90;;;;;;;16.42;85.93;99941.43;2740993;86;21064;-66
2021/07/04 04:00:33;;;;;;;24.67;11.38;;;;;;;16.50;86.68;99946.43;2740860;85;21047;-65
2021/07/04 04:04:36;;;;;;;19.95;12.63;;;;;;;16.74;86.85;99943.34;2706734;88;21110;-65
2021/07/04 04:08:42;;;;;;;19.20;10.90;;;;;;;16.98;86.26;99945.93;2706747;87;21070;-65
2021/07/04 04:12:45;;;;;;;16.62;11.68;;;;;;;17.22;85.69;99944.62;2740959;85;20992;-66
2021/07/04 04:16:48;;;;;;;19.48;11.25;;;;;;;17.39;85.89;99947.53;2741282;85;21097;-64
2021/07/04 04:20:50;;;;;;;37.80;13.03;;;;;;;17.75;85.39;99950.11;2707057;88;21075;-64
2021/07/04 04:24:53;;;;;;;22.22;11.88;;;;;;;18.33;88.01;99947.39;2741572;85;21501;-64
2021/07/04 04:28:56;;;;;;;21.50;12.53;;;;;;;19.26;89.49;99949.11;2742080;85;21063;-65
2021/07/04 04:32:59;;;;;;;23.52;10.88;;;;;;;20.34;87.82;99945.11;2742739;86;21056;-65
2021/07/04 04:37:03;;;;;;;22.62;11.12;;;;;;;21.51;86.21;99939.73;2708841;87;21082;-65
2021/07/04 04:41:06;;;;;;;12.63;6.92;;;;;;;22.55;79.34;99939.78;2709408;88;21038;-64
2021/07/04 04:45:11;;;;;;;15.03;8.43;;;;;;;23.15;71.42;99943.29;2744239;86;21075;-64
2021/07/04 04:49:15;;;;;;;11.13;7.97;;;;;;;23.52;69.87;99940.24;2744330;86;21083;-64
2021/07/04 04:53:19;;;;;;;12.65;9.50;;;;;;;23.98;67.94;99941.45;2744639;85;20980;-64
2021/07/04 04:57:22;;;;;;;18.60;8.45;;;;;;;24.15;66.90;99942.24;2710427;87;21027;-65
2021/07/04 05:01:29;;;;;;;20.45;7.97;;;;;;;24.36;65.25;99937.73;2744634;86;21032;-64
2021/07/04 05:05:35;;;;;;;11.63;7.65;;;;;;;24.58;65.23;99934.59;2710651;87;21082;-64
2021/07/04 05:24:01;;;;;;;11.18;8.10;;;;;;;27.02;59.84;99937.22;2836704;80;26393;-70
2021/07/04 05:28:04;;;;;;;11.93;7.90;;;;;;;27.88;58.03;99945.50;2783554;85;21037;-70
2021/07/04 05:32:07;;;;;;;18.12;7.67;;;;;;;28.36;57.16;99932.27;2781444;85;21653;-68
2021/07/04 05:36:09;;;;;;;13.30;9.90;;;;;;;28.31;55.14;99931.69;2831430;82;21047;-68
2021/07/04 05:40:16;;;;;;;18.15;9.68;;;;;;;27.69;55.69;99932.09;2811316;83;21608;-70
2021/07/04 05:44:16;;;;;;;21.10;9.28;;;;;;;27.73;57.51;99930.55;2759794;86;21762;-69
2021/07/04 05:48:17;;;;;;;16.40;9.30;;;;;;;28.20;57.02;99929.88;2779343;85;21514;-68
2021/07/04 05:52:19;;;;;;;13.90;10.05;;;;;;;28.74;55.42;99930.55;2779198;85;20989;-69
2021/07/04 05:56:22;;;;;;;16.93;9.83;;;;;;;29.10;54.39;99945.75;2779505;85;20982;-70
2021/07/04 06:00:24;;;;;;;26.80;11.55;;;;;;;29.31;53.54;99939.95;2779657;85;21021;-68
2021/07/04 06:04:26;;;;;;;15.25;9.18;;;;;;;29.54;53.23;99935.25;2779546;85;21001;-69
2021/07/04 06:08:28;;;;;;;15.98;7.47;;;;;;;29.35;53.41;99928.19;2779629;85;21051;-69
2021/07/04 06:12:29;;;;;;;10.72;8.33;;;;;;;29.55;53.30;99926.75;2795123;85;21070;-69
2021/07/04 06:16:31;;;;;;;14.68;8.83;;;;;;;29.81;52.95;99923.38;2807329;85;21034;-70
2021/07/04 06:20:34;;;;;;;21.05;8.43;;;;;;;30.01;53.01;99913.91;2806871;85;21073;-69
2021/07/04 06:24:35;;;;;;;17.87;9.10;;;;;;;30.31;53.07;99912.47;2807078;85;21038;-70
2021/07/04 06:28:37;;;;;;;10.05;7.60;;;;;;;30.64;50.64;99913.16;2807023;85;21031;-69
2021/07/04 06:32:40;;;;;;;14.55;8.65;;;;;;;30.88;50.04;99915.98;2822932;82;21075;-68
2021/07/04 06:36:42;;;;;;;19.45;9.50;;;;;;;30.74;50.45;99893.16;2807342;85;21039;-70
2021/07/04 06:40:46;;;;;;;9.88;7.60;;;;;;;30.29;49.93;99911.92;2807125;85;21074;-69
2021/07/04 06:44:48;;;;;;;11.30;9.18;;;;;;;30.29;49.93;99911.92;2807494;84;21028;-70
2021/07/04 06:48:50;;;;;;;19.77;9.23;;;;;;;30.10;51.53;99918.95;2807326;84;21007;-68
2021/07/04 06:52:51;;;;;;;11.05;8.60;;;;;;;30.14;50.60;99920.88;2807634;85;20995;-68
2021/07/04 06:56:53;;;;;;;12.88;7.92;;;;;;;30.06;50.48;99919.45;2807082;84;20998;-70
2021/07/04 07:00:54;;;;;;;13.85;7.67;;;;;;;29.59;50.96;99913.36;2806881;85;21312;-70
2021/07/04 07:04:56;;;;;;;21.50;9.18;;;;;;;29.15;52.24;99919.78;2807433;85;21078;-69
2021/07/04 07:08:58;;;;;;;11.35;8.10;;;;;;;28.59;53.34;99924.37;2807261;84;20995;-69
2021/07/04 07:13:00;;;;;;;11.57;7.72;;;;;;;28.36;53.35;99920.81;2806297;84;21042;-69
2021/07/04 07:17:02;;;;;;;22.13;8.68;;;;;;;28.34;53.91;99922.13;2806134;85;20987;-70
2021/07/04 07:21:04;;;;;;;10.23;8.30;;;;;;;28.40;52.96;99914.83;2796931;84;21107;-68
2021/07/04 07:25:08;;;;;;;10.32;8.08;;;;;;;28.36;54.49;99918.07;2822381;84;21004;-72
2021/07/04 07:29:10;;;;;;;10.82;7.12;;;;;;;28.25;54.54;99910.80;2824816;84;21039;-70
2021/07/04 07:33:12;;;;;;;9.10;7.53;;;;;;;28.34;52.55;99906.56;2751668;85;21082;-70
2021/07/04 07:37:15;;;;;;;8.65;7.75;;;;;;;28.33;52.14;99906.80;2779790;85;21049;-69
2021/07/04 07:41:18;;;;;;;11.00;7.50;;;;;;;28.35;52.35;99908.74;2779464;84;21056;-68
2021/07/04 07:45:19;;;;;;;10.10;7.12;;;;;;;28.48;52.85;99906.16;2793849;85;20988;-68
2021/07/04 07:49:21;;;;;;;9.00;6.35;;;;;;;28.70;53.07;99898.51;2778752;85;21029;-68
2021/07/04 07:53:23;;;;;;;8.90;5.85;;;;;;;28.96;51.33;99891.96;2793945;85;21050;-67
2021/07/04 07:57:24;;;;;;;10.63;5.53;;;;;;;29.18;50.49;99887.25;2781006;85;21033;-67
2021/07/04 08:01:26;;;;;;;6.92;5.78;;;;;;;29.39;50.20;99886.61;2769355;86;21068;-68
2021/07/04 08:05:28;;;;;;;7.50;4.70;;;;;;;29.49;50.09;99876.59;2770636;85;21032;-67
2021/07/04 08:09:29;;;;;;;6.28;5.35;;;;;;;29.38;50.25;99876.19;2770311;85;21028;-67
2021/07/04 08:13:32;;;;;;;8.23;5.35;;;;;;;29.37;50.85;99870.42;2769496;85;21072;-67
2021/07/04 08:17:33;;;;;;;6.67;4.95;;;;;;;29.46;49.42;99870.80;2769655;85;21107;-68
2021/07/04 08:21:35;;;;;;;6.10;5.00;;;;;;;29.80;47.61;99869.13;2781211;84;21024;-68
2021/07/04 08:25:37;;;;;;;6.83;4.55;;;;;;;30.15;48.50;99866.86;2829426;84;21070;-68
2021/07/04 08:29:39;;;;;;;7.70;4.28;;;;;;;30.27;47.81;99862.52;2829589;84;21057;-66
2021/07/04 08:33:41;;;;;;;8.73;5.00;;;;;;;30.37;47.37;99858.47;2820640;83;20974;-67
2021/07/04 08:37:43;;;;;;;5.53;3.98;;;;;;;30.39;47.75;99852.69;2864158;83;21565;-67
2021/07/04 08:41:45;;;;;;;5.97;4.95;;;;;;;30.09;47.21;99825.44;2864384;82;21028;-67
2021/07/04 08:45:47;;;;;;;4.62;4.17;;;;;;;29.98;46.57;99824.54;2864190;83;21008;-67
2021/07/04 08:49:51;;;;;;;7.03;5.92;;;;;;;29.98;46.57;99824.54;2864361;83;21051;-70
2021/07/04 08:53:53;;;;;;;7.03;4.80;;;;;;;29.96;47.19;99844.52;2864163;83;21013;-68
2021/07/04 08:57:57;;;;;;;7.90;5.83;;;;;;;30.06;47.30;99839.13;2864168;83;20992;-69
2021/07/04 09:01:59;;;;;;;6.17;4.70;;;;;;;30.21;48.30;99839.20;2864937;82;21081;-67
2021/07/04 09:06:01;;;;;;;13.00;4.62;;;;;;;30.29;47.01;99831.00;2864165;83;21004;-68
2021/07/04 09:10:08;;;;;;;5.58;4.65;;;;;;;30.38;46.56;99823.61;2863901;83;21040;-67
2021/07/04 09:14:09;;;;;;;7.45;4.53;;;;;;;30.38;46.56;99823.61;2857234;83;21068;-67
2021/07/04 09:18:17;;;;;;;6.15;3.65;;;;;;;30.35;46.20;99815.36;2863216;83;21031;-67
2021/07/04 09:22:35;;;;;;;5.33;4.33;;;;;;;30.38;44.54;99824.98;2862451;82;21056;-69
2021/07/04 09:26:43;;;;;;;4.78;4.28;;;;;;;30.23;45.35;99817.53;2861438;83;21043;-70
2021/07/04 09:30:56;;;;;;;8.70;4.53;;;;;;;30.18;44.46;99815.59;2862052;82;21103;-69
2021/07/04 09:35:11;;;;;;;5.97;4.62;;;;;;;30.09;45.30;99822.70;2861441;83;21024;-71
2021/07/04 09:39:18;;;;;;;5.20;4.60;;;;;;;30.44;44.12;99817.87;2862537;83;21048;-70
2021/07/04 09:43:21;;;;;;;4.62;3.47;;;;;;;30.68;43.51;99820.14;2862295;82;21033;-73
2021/07/04 09:47:22;;;;;;;5.47;3.87;;;;;;;30.92;44.06;99820.45;2862443;83;21033;-68
2021/07/04 09:51:29;;;;;;;4.58;3.60;;;;;;;30.97;43.86;99816.06;2861814;82;20981;-70
2021/07/04 09:55:31;;;;;;;5.72;4.58;;;;;;;30.56;44.06;99818.16;2863125;83;20973;-67
2021/07/04 09:59:33;;;;;;;4.17;3.55;;;;;;;29.92;45.95;99818.20;2847748;82;21035;-68
2021/07/04 10:03:42;;;;;;;5.10;4.60;;;;;;;29.30;45.96;99818.60;2848078;82;21061;-67
2021/07/04 10:07:43;;;;;;;5.08;4.60;;;;;;;28.87;48.23;99816.33;2846315;83;21044;-69
2021/07/04 10:11:47;;;;;;;6.67;4.75;;;;;;;28.52;49.93;99821.16;2825296;83;21090;-68
2021/07/04 10:15:49;;;;;;;6.75;5.03;;;;;;;28.16;51.08;99821.55;2811567;84;21027;-68
2021/07/04 10:19:51;;;;;;;7.17;5.62;;;;;;;27.84;51.73;99814.55;2811046;84;21031;-68
2021/07/04 10:24:00;;;;;;;6.17;5.08;;;;;;;27.63;52.88;99812.38;2774878;84;21908;-67
2021/07/04 10:28:01;;;;;;;5.28;4.80;;;;;;;27.49;52.60;99805.02;2777488;84;21058;-70
2021/07/04 10:32:09;;;;;;;4.53;4.12;;;;;;;27.32;53.39;99806.97;2803252;84;21051;-68
2021/07/04 10:36:21;;;;;;;12.03;5.17;;;;;;;27.27;53.88;99802.77;2796779;85;21023;-70
2021/07/04 10:40:21;;;;;;;5.37;4.87;;;;;;;27.21;51.88;99799.97;2772673;86;21053;-65
2021/07/04 10:44:44;;;;;;;6.20;4.53;;;;;;;27.02;51.28;99799.92;2804247;85;21007;-67
2021/07/04 10:48:55;;;;;;;6.25;4.67;;;;;;;26.96;50.53;99795.46;2804567;85;21043;-65
2021/07/04 10:52:57;;;;;;;5.45;4.92;;;;;;;26.89;50.68;99792.33;2784910;85;21015;-65
2021/07/04 10:57:06;;;;;;;6.83;5.08;;;;;;;26.92;50.43;99786.93;2804206;85;21003;-69
2021/07/04 11:01:13;;;;;;;8.38;4.58;;;;;;;27.03;54.65;99786.56;2792550;85;21054;-68
2021/07/04 11:05:41;;;;;;;8.08;5.30;;;;;;;27.10;53.55;99789.95;2815941;84;21041;-68
2021/07/04 11:10:01;;;;;;;4.85;4.25;;;;;;;27.18;53.55;99785.45;2834731;83;21028;-68
2021/07/04 11:14:09;;;;;;;7.85;4.87;;;;;;;27.21;54.69;99789.05;2809022;83;21117;-69
2021/07/04 11:18:16;;;;;;;5.12;4.65;;;;;;;27.25;55.39;99780.35;2803528;85;21070;-69
2021/07/04 11:22:18;;;;;;;5.62;4.70;;;;;;;27.30;55.76;99787.25;2810096;83;21391;-69
2021/07/04 11:26:19;;;;;;;6.55;5.62;;;;;;;27.32;55.47;99781.84;2818125;84;21677;-70
2021/07/04 11:30:26;;;;;;;4.70;4.30;;;;;;;27.35;57.17;99784.06;2811094;83;21099;-73
2021/07/04 11:34:27;;;;;;;6.97;5.40;;;;;;;27.40;57.07;99779.23;2848637;83;21539;-68
2021/07/04 11:38:40;;;;;;;8.03;5.25;;;;;;;27.44;55.76;99780.93;2850211;83;21049;-72
2021/07/04 11:42:41;;;;;;;7.97;4.97;;;;;;;27.45;55.69;99777.93;2820393;84;21568;-72
2021/07/04 11:46:47;;;;;;;4.97;4.37;;;;;;;27.43;55.77;99769.72;2820737;83;21016;-66
2021/07/04 11:50:52;;;;;;;22.98;6.65;;;;;;;27.42;55.70;99763.97;2819935;84;21576;-67
2021/07/04 11:54:59;;;;;;;27.65;8.10;;;;;;;27.37;56.54;99762.80;2850853;83;21017;-70
2021/07/04 11:59:10;;;;;;;5.67;4.55;;;;;;;27.35;55.20;99760.86;2849337;83;21020;-69
2021/07/04 12:03:12;;;;;;;6.78;5.10;;;;;;;27.32;56.94;99751.81;2848055;83;21033;-69
2021/07/04 12:07:16;;;;;;;8.20;4.97;;;;;;;27.29;56.50;99755.05;2829427;83;20997;-70
2021/07/04 12:11:18;;;;;;;;;;;;;;;27.30;56.36;99753.97;2850246;83;21316;-74
2021/07/04 12:15:20;;;;;;;6.25;5.58;;;;;;;27.33;56.76;99749.92;2846852;83;20105;-72
2021/07/04 12:19:34;;;;;;;6.28;5.67;;;;;;;27.34;54.62;99747.47;2847986;83;21052;-67
2021/07/04 12:23:36;;;;;;;6.40;4.92;;;;;;;27.35;54.46;99746.39;2847302;83;21021;-69
2021/07/04 12:27:52;;;;;;;10.08;4.95;;;;;;;27.34;53.71;99739.28;2848402;83;21052;-73
2021/07/04 12:32:02;;;;;;;6.50;5.10;;;;;;;27.36;53.93;99735.76;2848353;83;21632;-69
2021/07/04 12:36:11;;;;;;;4.95;4.50;;;;;;;27.38;54.92;99732.23;2848087;83;21699;-70
2021/07/04 12:40:18;;;;;;;6.45;5.50;;;;;;;27.41;55.73;99733.62;2848209;83;20981;-72
2021/07/04 12:44:21;;;;;;;6.15;4.80;;;;;;;27.46;54.55;99716.77;2848350;83;21045;-70
2021/07/04 12:48:25;;;;;;;15.85;6.58;;;;;;;27.54;55.01;99717.47;2848028;83;20974;-69
2021/07/04 12:52:28;;;;;;;12.78;11.48;;;;;;;27.57;54.31;99715.59;2847776;83;20994;-69
2021/07/04 12:56:33;;;;;;;12.30;11.18;;;;;;;27.63;54.03;99720.03;2848314;83;21044;-70
2021/07/04 13:00:35;;;;;;;40.20;9.08;;;;;;;27.64;55.18;99711.59;2848557;83;21005;-69
2021/07/04 13:04:46;;;;;;;6.83;5.30;;;;;;;27.62;55.94;99712.91;2848859;83;20973;-73
2021/07/04 13:08:57;;;;;;;6.12;5.00;;;;;;;27.66;54.71;99704.49;2848334;83;21044;-70
2021/07/04 13:13:09;;;;;;;13.35;6.80;;;;;;;27.72;55.31;99700.77;2848215;83;21041;-72
2021/07/04 13:17:24;;;;;;;15.53;9.80;;;;;;;27.70;55.84;99693.34;2848397;83;21033;-72
2021/07/04 13:21:37;;;;;;;6.42;4.87;;;;;;;27.69;55.79;99693.05;2848595;83;21033;-72
2021/07/04 13:25:43;;;;;;;10.20;6.25;;;;;;;27.69;53.69;99687.59;2788154;83;21056;-71
2021/07/04 13:29:46;;;;;;;10.23;7.08;;;;;;;27.53;53.98;99685.77;2765972;86;21045;-66
2021/07/04 13:33:48;;;;;;;6.40;5.75;;;;;;;27.38;54.78;99678.99;2767087;86;21088;-64
2021/07/04 13:38:00;;;;;;;9.33;6.37;;;;;;;27.27;54.69;99682.65;2768039;86;21012;-64
2021/07/04 13:42:04;;;;;;;7.75;5.12;;;;;;;27.17;55.80;99680.59;2767473;86;21064;-66
2021/07/04 13:46:06;;;;;;;6.78;5.50;;;;;;;27.03;56.35;99671.95;2766207;86;21017;-67
2021/07/04 13:50:09;;;;;;;7.30;5.53;;;;;;;26.98;57.34;99680.06;2766160;86;21053;-67
2021/07/04 13:54:10;;;;;;;6.10;5.50;;;;;;;27.01;57.01;99672.19;2765988;86;21037;-68
2021/07/04 13:58:14;;;;;;;44.88;32.42;;;;;;;27.00;56.86;99668.36;2765780;86;21088;-69
2021/07/04 14:02:15;;;;;;;25.17;19.12;;;;;;;26.92;57.60;99667.72;2766714;86;21025;-66
2021/07/04 14:06:17;;;;;;;52.00;37.78;;;;;;;26.90;57.66;99657.56;2766772;86;21091;-67
2021/07/04 14:10:20;;;;;;;21.10;15.35;;;;;;;26.94;57.71;99661.47;2766843;86;21028;-67
2021/07/04 14:14:22;;;;;;;9.33;7.47;;;;;;;27.04;58.09;99653.13;2766858;86;21088;-67
2021/07/04 14:18:23;;;;;;;6.67;5.97;;;;;;;27.06;57.04;99653.17;2767080;86;21052;-67
2021/07/04 14:22:25;;;;;;;8.55;5.75;;;;;;;27.12;57.21;99655.45;2767139;86;21053;-68
2021/07/04 14:26:27;;;;;;;7.10;5.42;;;;;;;27.22;59.33;99656.94;2805389;84;21009;-67
2021/07/04 14:30:29;;;;;;;142.72;96.00;;;;;;;27.33;58.81;99648.90;2806697;84;21001;-67
2021/07/04 14:34:31;;;;;;;16.90;11.83;;;;;;;27.42;55.39;99638.36;2806887;84;21490;-68
2021/07/04 14:38:33;;;;;;;24.30;18.60;;;;;;;27.45;55.11;99630.47;2806919;85;21064;-67
2021/07/04 14:42:35;;;;;;;34.78;22.00;;;;;;;27.46;54.81;99634.84;2806739;85;21061;-67
2021/07/04 14:46:37;;;;;;;10.58;7.65;;;;;;;27.42;55.58;99634.27;2806826;84;21576;-66
2021/07/04 14:50:44;;;;;;;18.65;7.83;;;;;;;27.54;56.76;99635.53;2806269;85;21068;-67
2021/07/04 14:55:02;;;;;;;37.65;19.23;;;;;;;27.49;55.04;99636.25;2806952;84;21617;-68
2021/07/04 14:58:53;;;;;;;10.58;7.22;;;;;;;27.45;54.44;99638.66;2800000;84;21091;-68
2021/07/04 15:02:55;;;;;;;9.05;5.12;;;;;;;27.46;53.90;99634.04;2807221;85;21033;-68
2021/07/04 15:06:58;;;;;;;5.72;5.05;;;;;;;27.56;53.36;99629.27;2806733;84;21021;-67
2021/07/04 15:10:59;;;;;;;9.43;5.03;;;;;;;27.57;52.94;99625.45;2806663;84;21060;-66
2021/07/04 15:15:01;;;;;;;17.95;13.00;;;;;;;27.63;52.78;99627.16;2806891;84;21020;-68
2021/07/04 15:19:03;;;;;;;5.80;5.30;;;;;;;27.64;52.77;99624.71;2806577;85;21040;-68
2021/07/04 15:23:05;;;;;;;8.08;5.75;;;;;;;27.64;51.74;99620.61;2806666;84;21045;-67
2021/07/04 15:27:06;;;;;;;6.90;6.05;;;;;;;27.64;51.62;99620.61;2807039;84;21053;-68
2021/07/04 15:31:08;;;;;;;6.60;6.00;;;;;;;27.64;50.52;99616.52;2806853;85;21061;-68
2021/07/04 15:35:12;;;;;;;5.53;4.53;;;;;;;27.63;50.87;99618.97;2806939;84;21009;-66
2021/07/04 15:39:16;;;;;;;5.72;4.80;;;;;;;27.61;50.15;99617.03;2806884;84;21049;-68
2021/07/04 15:43:19;;;;;;;15.90;6.15;;;;;;;27.57;49.62;99609.88;2806835;84;21037;-66
2021/07/04 15:47:22;;;;;;;6.08;5.47;;;;;;;27.59;50.47;99609.64;2809182;84;21021;-67
2021/07/04 15:51:24;;;;;;;11.43;5.22;;;;;;;27.58;49.98;99609.35;2809654;84;20997;-67
2021/07/04 15:55:28;;;;;;;5.47;4.90;;;;;;;27.60;51.46;99603.09;2809517;84;21036;-65
2021/07/04 15:59:29;;;;;;;7.25;5.00;;;;;;;27.61;50.96;99603.38;2807827;84;21052;-67
2021/07/04 16:03:31;;;;;;;6.20;5.42;;;;;;;27.58;51.66;99595.70;2807016;84;21021;-66
2021/07/04 16:07:33;;;;;;;8.43;5.72;;;;;;;27.56;51.80;99582.84;2807130;85;21704;-66
2021/07/04 16:11:35;;;;;;;5.97;5.22;;;;;;;27.61;51.98;99582.89;2807030;84;21029;-68
2021/07/04 16:15:36;;;;;;;7.65;5.15;;;;;;;27.74;51.97;99575.66;2806714;84;21067;-67
2021/07/04 16:19:39;;;;;;;10.58;5.03;;;;;;;27.83;51.14;99574.66;2806267;85;21013;-67
2021/07/04 16:23:41;;;;;;;7.75;5.33;;;;;;;27.84;50.40;99565.38;2805232;84;21541;-66
2021/07/04 16:27:43;;;;;;;15.72;6.67;;;;;;;27.71;52.18;99566.63;2783519;85;21032;-68
2021/07/04 16:31:45;;;;;;;4.25;3.85;;;;;;;27.55;50.53;99569.71;2757088;85;21048;-67
2021/07/04 16:35:47;;;;;;;5.45;4.33;;;;;;;27.62;50.91;99569.52;2754885;86;21092;-67
2021/07/04 16:39:49;;;;;;;6.65;4.90;;;;;;;27.72;50.25;99566.91;2755265;86;21012;-67
2021/07/04 16:43:51;;;;;;;7.70;4.03;;;;;;;27.76;50.82;99563.09;2773599;86;21107;-66
2021/07/04 16:47:53;;;;;;;5.03;4.53;;;;;;;27.70;51.37;99558.11;2773766;86;21064;-68
2021/07/04 16:51:55;;;;;;;6.65;5.30;;;;;;;27.62;51.67;99560.80;2813536;84;21067;-67
2021/07/04 16:55:57;;;;;;;7.87;5.20;;;;;;;27.49;50.98;99566.62;2808066;84;20985;-67
2021/07/04 16:59:59;;;;;;;5.62;5.12;;;;;;;27.32;51.28;99562.06;2810146;84;21036;-68
2021/07/04 17:04:01;;;;;;;5.50;4.92;;;;;;;27.23;51.95;99563.05;2814407;84;21020;-66
2021/07/04 17:08:04;;;;;;;5.92;5.35;;;;;;;27.11;52.80;99565.06;2802197;85;21023;-66
2021/07/04 17:12:06;;;;;;;6.53;5.03;;;;;;;27.00;53.38;99557.28;2801856;84;21084;-66
2021/07/04 17:16:08;;;;;;;5.75;5.25;;;;;;;26.88;53.64;99561.50;2809943;84;21607;-65
2021/07/04 17:20:14;;;;;;;5.72;5.17;;;;;;;26.77;55.01;99556.97;2808699;84;21031;-66
2021/07/04 17:24:16;;;;;;;7.28;6.53;;;;;;;26.62;54.74;99560.28;2825772;82;21072;-65
2021/07/04 17:28:18;;;;;;;5.58;5.08;;;;;;;26.40;55.15;99560.23;2831486;82;21028;-70
2021/07/04 17:32:20;;;;;;;6.00;5.50;;;;;;;26.21;55.69;99565.94;2832857;83;21069;-70
2021/07/04 17:36:22;;;;;;;7.72;5.92;;;;;;;26.09;56.93;99561.90;2832428;83;21021;-69
2021/07/04 17:40:27;;;;;;;7.50;6.72;;;;;;;26.03;58.64;99563.70;2827858;83;20979;-70
2021/07/04 17:44:28;;;;;;;6.80;6.10;;;;;;;25.91;60.92;99571.95;2820139;83;21026;-68
2021/07/04 17:48:30;;;;;;;7.95;7.17;;;;;;;25.81;61.61;99574.47;2818357;83;21032;-68
2021/07/04 17:52:32;;;;;;;8.68;6.33;;;;;;;25.65;62.20;99572.85;2831868;83;21553;-70
2021/07/04 17:56:35;;;;;;;7.08;6.40;;;;;;;25.53;63.04;99570.70;2832797;83;20997;-67
2021/07/04 18:00:41;;;;;;;8.53;6.10;;;;;;;25.44;63.29;99564.78;2831999;83;21006;-65
2021/07/04 18:04:42;;;;;;;12.10;5.87;;;;;;;25.38;62.29;99570.65;2835068;83;21021;-66
2021/07/04 18:08:44;;;;;;;8.48;7.28;;;;;;;25.33;60.77;99574.64;2834689;83;21068;-65
2021/07/04 18:12:46;;;;;;;37.35;9.13;;;;;;;25.21;59.93;99575.20;2752738;85;21082;-67
2021/07/04 18:16:48;;;;;;;9.15;6.78;;;;;;;25.07;62.55;99573.28;2802745;84;21011;-67
2021/07/04 18:20:51;;;;;;;13.25;6.70;;;;;;;24.98;63.57;99577.45;2772456;84;21013;-64
2021/07/04 18:24:53;;;;;;;7.92;7.03;;;;;;;24.83;64.65;99575.20;2788120;83;21019;-66
2021/07/04 18:28:55;;;;;;;6.78;6.22;;;;;;;24.58;66.30;99569.45;2827315;83;20973;-66
2021/07/04 18:33:01;;;;;;;9.58;6.97;;;;;;;24.25;67.36;99575.20;2810754;83;21043;-65
2021/07/04 18:37:05;;;;;;;11.55;8.90;;;;;;;24.03;67.48;99580.88;2849096;83;21068;-64
2021/07/04 18:41:10;;;;;;;19.67;12.35;;;;;;;23.90;68.05;99583.24;2850083;83;22207;-66
2021/07/04 18:45:14;;;;;;;19.27;13.15;;;;;;;23.86;68.17;99585.58;2849197;83;21040;-66
2021/07/04 18:49:20;;;;;;;12.25;9.25;;;;;;;23.85;67.83;99585.28;2847262;83;21020;-67
2021/07/04 18:53:26;;;;;;;11.88;9.60;;;;;;;23.82;67.99;99582.52;2849709;83;21060;-68
2021/07/04 18:57:28;;;;;;;12.75;9.28;;;;;;;23.80;68.08;99579.21;2849576;83;21059;-66
2021/07/04 19:01:33;;;;;;;9.70;7.55;;;;;;;23.78;68.22;99589.98;2849403;83;21088;-67
2021/07/04 19:05:40;;;;;;;12.18;9.15;;;;;;;23.69;70.35;99594.91;2848994;83;21095;-67
2021/07/04 19:09:40;;;;;;;10.50;8.13;;;;;;;23.47;70.50;99598.12;2849104;83;21052;-66